Time;durP1;ratioP1;P1;durP2;ratioP2;P2;SDS_P1;SDS_P2;PMS_P1;PMS_P2;Temp;Humidity;BMP_temperature;BMP_pressure;BME280_temperature;BME280_humidity;BME280_pressure;Samples;Min_cycle;Max_cycle;Signal;HPM_P1;HPM_P2
2021/11/24 00:00:21;;;;;;;0.70;0.70;;;-1.20;99.90;;;;;;5015587;28;20214;-69
2021/11/24 00:02:48;;;;;;;0.60;0.60;;;-1.20;99.90;;;;;;5014356;28;20687;-69
2021/11/24 00:05:14;;;;;;;0.70;0.70;;;-1.40;99.90;;;;;;5032030;28;20564;-68
2021/11/24 00:07:42;;;;;;;0.65;0.65;;;-1.40;99.90;;;;;;5031440;28;20292;-68
2021/11/24 00:10:09;;;;;;;0.90;0.90;;;-1.40;99.90;;;;;;5031981;28;20202;-68
2021/11/24 00:12:35;;;;;;;1.00;1.00;;;-1.50;99.90;;;;;;5031936;28;20642;-68
2021/11/24 00:15:02;;;;;;;0.70;0.70;;;-1.60;99.90;;;;;;5032093;28;20277;-68
2021/11/24 00:17:30;;;;;;;0.75;0.75;;;-1.80;99.90;;;;;;5033188;28;20229;-68
2021/11/24 00:19:56;;;;;;;0.80;0.80;;;-1.80;99.90;;;;;;5014891;28;20302;-68
2021/11/24 00:22:22;;;;;;;0.70;0.70;;;-1.70;99.90;;;;;;5031862;28;20276;-69
2021/11/24 00:24:47;;;;;;;0.60;0.60;;;-1.70;99.90;;;;;;5032022;28;20612;-68
2021/11/24 00:27:13;;;;;;;1.00;1.00;;;-1.80;99.90;;;;;;5032166;28;20214;-68
2021/11/24 00:29:39;;;;;;;0.60;0.60;;;-1.70;99.90;;;;;;5031695;28;20210;-68
2021/11/24 00:32:05;;;;;;;0.80;0.80;;;-1.70;99.90;;;;;;5032957;28;20300;-69
2021/11/24 00:34:31;;;;;;;0.80;0.80;;;-1.60;99.90;;;;;;5031674;28;20316;-68
2021/11/24 00:36:56;;;;;;;0.60;0.60;;;-1.60;99.90;;;;;;5031675;28;20202;-68
2021/11/24 00:39:22;;;;;;;0.80;0.80;;;-1.60;99.90;;;;;;5031515;28;20206;-68
2021/11/24 00:41:48;;;;;;;0.82;0.82;;;-1.50;99.90;;;;;;5015157;28;20218;-67
2021/11/24 00:44:14;;;;;;;0.80;0.80;;;-1.60;99.90;;;;;;5031133;28;20206;-68
2021/11/24 00:46:39;;;;;;;0.80;0.80;;;-1.60;99.90;;;;;;5031350;28;20213;-68
2021/11/24 00:49:07;;;;;;;0.80;0.80;;;-1.60;99.90;;;;;;5031508;28;20343;-68
2021/11/24 00:51:33;;;;;;;0.70;0.70;;;-1.50;99.90;;;;;;5031197;28;20202;-68
2021/11/24 00:53:58;;;;;;;0.73;0.73;;;-1.60;99.90;;;;;;5032876;28;20567;-68
2021/11/24 00:56:24;;;;;;;0.85;0.85;;;-1.70;99.90;;;;;;5032635;28;20343;-68
2021/11/24 00:58:50;;;;;;;0.80;0.80;;;-1.60;99.90;;;;;;5013733;28;20202;-68
2021/11/24 01:01:15;;;;;;;0.70;0.70;;;-1.70;99.90;;;;;;5031437;28;20289;-68
2021/11/24 01:03:41;;;;;;;0.70;0.70;;;-1.70;99.90;;;;;;5031163;28;20540;-68
2021/11/24 01:06:07;;;;;;;0.68;0.68;;;-1.80;99.90;;;;;;5031171;28;20202;-69
2021/11/24 01:08:33;;;;;;;0.70;0.70;;;-1.90;99.90;;;;;;5030892;28;20228;-68
2021/11/24 01:10:59;;;;;;;0.70;0.70;;;-2.00;99.90;;;;;;5032525;28;20218;-69
2021/11/24 01:13:26;;;;;;;0.80;0.80;;;-2.20;99.90;;;;;;5031188;28;20202;-69
2021/11/24 01:15:52;;;;;;;1.20;1.20;;;-2.30;99.90;;;;;;5031641;28;20213;-70
2021/11/24 01:18:18;;;;;;;0.70;0.70;;;-2.40;99.90;;;;;;5032465;28;20202;-68
2021/11/24 01:20:46;;;;;;;0.80;0.80;;;-2.40;99.90;;;;;;5032353;28;20218;-68
2021/11/24 01:23:13;;;;;;;0.82;0.82;;;-2.40;99.90;;;;;;5032112;28;20237;-68
2021/11/24 01:25:39;;;;;;;0.75;0.75;;;-2.30;99.90;;;;;;5012934;28;20677;-68
2021/11/24 01:28:04;;;;;;;0.70;0.70;;;-2.30;99.90;;;;;;5032468;28;20282;-69
2021/11/24 01:30:30;;;;;;;0.70;0.70;;;-2.30;99.90;;;;;;5032240;28;20296;-68
2021/11/24 01:32:56;;;;;;;0.70;0.70;;;-2.30;99.90;;;;;;5013222;28;20206;-68
2021/11/24 01:35:22;;;;;;;0.73;0.73;;;-2.10;99.90;;;;;;5030740;28;20256;-68
2021/11/24 01:37:47;;;;;;;0.80;0.80;;;-2.00;99.90;;;;;;5031036;28;20208;-68
2021/11/24 01:40:13;;;;;;;0.82;0.82;;;-1.90;99.90;;;;;;5030915;28;20194;-68
2021/11/24 01:42:40;;;;;;;0.80;0.80;;;-1.90;99.90;;;;;;5013084;28;20198;-68
2021/11/24 01:45:07;;;;;;;0.75;0.75;;;-1.80;99.90;;;;;;5032338;28;20555;-68
2021/11/24 01:47:32;;;;;;;0.82;0.82;;;-1.70;99.90;;;;;;5030864;28;20622;-68
2021/11/24 01:49:58;;;;;;;0.80;0.80;;;-1.50;99.90;;;;;;5030934;28;20202;-68
2021/11/24 01:52:24;;;;;;;0.70;0.70;;;-1.40;99.90;;;;;;5030719;28;20190;-69
2021/11/24 01:54:49;;;;;;;0.60;0.60;;;-1.40;99.90;;;;;;5030963;28;20206;-68
2021/11/24 01:57:16;;;;;;;0.75;0.75;;;-1.50;99.90;;;;;;5033463;28;20198;-68
2021/11/24 01:59:46;;;;;;;0.70;0.70;;;-1.70;99.90;;;;;;5016682;28;20248;-68
2021/11/24 02:02:12;;;;;;;0.70;0.70;;;-1.90;99.90;;;;;;5033989;28;20221;-68
2021/11/24 02:04:38;;;;;;;0.70;0.70;;;-2.00;99.90;;;;;;5034454;28;20653;-69
2021/11/24 02:07:04;;;;;;;0.80;0.80;;;-2.10;99.90;;;;;;5034143;28;20226;-68
2021/11/24 02:09:30;;;;;;;0.90;0.90;;;-2.30;99.90;;;;;;5034427;28;20217;-68
2021/11/24 02:11:57;;;;;;;0.88;0.88;;;-2.40;99.90;;;;;;5034629;28;20248;-68
2021/11/24 02:14:23;;;;;;;0.80;0.80;;;-2.50;99.90;;;;;;5016347;28;20354;-68
2021/11/24 02:16:52;;;;;;;0.85;0.85;;;-2.60;99.90;;;;;;5034229;28;20293;-68
2021/11/24 02:19:19;;;;;;;0.80;0.80;;;-2.60;99.90;;;;;;5016576;28;20218;-68
2021/11/24 02:21:52;;;;;;;0.80;0.80;;;-2.70;99.90;;;;;;5016243;28;20213;-68
2021/11/24 02:24:21;;;;;;;1.27;1.17;;;-2.60;99.90;;;;;;5035248;28;20293;-69
2021/11/24 02:26:46;;;;;;;0.73;0.73;;;-2.60;99.90;;;;;;5016055;28;20688;-68
2021/11/24 02:29:12;;;;;;;0.70;0.70;;;-2.50;99.90;;;;;;5016308;28;20206;-68
2021/11/24 02:31:38;;;;;;;0.70;0.70;;;-2.50;99.90;;;;;;5035100;28;20268;-68
2021/11/24 02:34:04;;;;;;;0.65;0.65;;;-2.50;99.90;;;;;;5034097;28;20205;-68
2021/11/24 02:36:32;;;;;;;0.80;0.80;;;-2.50;99.90;;;;;;5017267;28;20257;-68
2021/11/24 02:38:59;;;;;;;0.80;0.80;;;-2.60;99.90;;;;;;5034016;28;20202;-68
2021/11/24 02:41:26;;;;;;;0.82;0.82;;;-2.60;99.90;;;;;;5015862;28;20209;-68
2021/11/24 02:43:52;;;;;;;0.90;0.90;;;-2.60;99.90;;;;;;5035174;28;20202;-69
2021/11/24 02:46:18;;;;;;;0.73;0.73;;;-2.60;99.90;;;;;;5034884;28;20637;-68
2021/11/24 02:48:44;;;;;;;2.25;2.05;;;-2.70;99.90;;;;;;5033558;28;20226;-68
2021/11/24 02:51:10;;;;;;;0.65;0.65;;;-2.70;99.90;;;;;;5016886;28;20577;-68
2021/11/24 02:53:36;;;;;;;1.45;1.35;;;-2.70;99.90;;;;;;5015651;28;20206;-68
2021/11/24 02:56:03;;;;;;;0.70;0.70;;;-2.70;99.90;;;;;;5034505;28;20206;-68
2021/11/24 02:58:29;;;;;;;1.20;1.15;;;-2.70;99.90;;;;;;5015547;28;20681;-68
2021/11/24 03:00:57;;;;;;;0.88;0.88;;;-2.60;99.90;;;;;;5032395;28;20217;-68
2021/11/24 03:03:23;;;;;;;0.80;0.80;;;-2.60;99.90;;;;;;5016582;28;20635;-68
2021/11/24 03:05:49;;;;;;;1.02;1.02;;;-2.60;99.90;;;;;;5032986;28;20281;-68
2021/11/24 03:08:14;;;;;;;0.80;0.80;;;-2.50;99.90;;;;;;5032575;28;20257;-68
2021/11/24 03:10:40;;;;;;;0.80;0.80;;;-2.40;99.90;;;;;;5015021;28;20591;-69
2021/11/24 03:13:07;;;;;;;0.80;0.80;;;-2.30;99.90;;;;;;5034369;28;20304;-69
2021/11/24 03:15:33;;;;;;;0.70;0.70;;;-2.20;99.90;;;;;;5032949;28;20661;-68
2021/11/24 03:17:59;;;;;;;0.80;0.80;;;-2.10;99.90;;;;;;5016623;28;20202;-68
2021/11/24 03:20:28;;;;;;;0.65;0.65;;;-2.10;99.90;;;;;;5034139;28;20197;-68
2021/11/24 03:22:55;;;;;;;4.43;2.15;;;-2.10;99.90;;;;;;5016308;28;20637;-68
2021/11/24 03:25:21;;;;;;;0.73;0.73;;;-2.00;99.90;;;;;;5032584;28;20198;-69
2021/11/24 03:27:47;;;;;;;0.70;0.70;;;-2.00;99.90;;;;;;5015164;28;20717;-68
2021/11/24 03:30:19;;;;;;;0.90;0.90;;;-1.90;99.90;;;;;;5016124;28;20576;-68
2021/11/24 03:32:45;;;;;;;0.95;0.95;;;-2.00;99.90;;;;;;5032430;28;20263;-69
2021/11/24 03:35:11;;;;;;;0.80;0.80;;;-2.10;99.90;;;;;;5033065;28;20202;-69
2021/11/24 03:37:37;;;;;;;0.90;0.90;;;-2.10;99.90;;;;;;5014584;28;20208;-70
2021/11/24 03:40:04;;;;;;;0.82;0.82;;;-2.30;99.90;;;;;;5032737;28;20682;-68
2021/11/24 03:42:31;;;;;;;0.80;0.80;;;-2.40;99.90;;;;;;5033671;28;20210;-68
2021/11/24 03:44:57;;;;;;;1.00;1.00;;;-2.50;99.90;;;;;;5033920;28;20212;-68
2021/11/24 03:47:23;;;;;;;0.80;0.80;;;-2.50;99.90;;;;;;5032301;28;20209;-68
2021/11/24 03:49:52;;;;;;;1.33;1.23;;;-2.60;99.90;;;;;;5032532;28;20237;-68
2021/11/24 03:52:18;;;;;;;0.88;0.88;;;-2.60;99.90;;;;;;5032349;28;20238;-68
2021/11/24 03:54:44;;;;;;;0.98;0.98;;;-2.60;99.90;;;;;;5031111;28;20292;-68
2021/11/24 03:57:09;;;;;;;0.85;0.85;;;-2.70;99.90;;;;;;5032397;28;20240;-69
2021/11/24 03:59:35;;;;;;;0.80;0.80;;;-2.70;99.90;;;;;;5033424;28;20201;-71
2021/11/24 04:02:01;;;;;;;0.95;0.95;;;-2.70;99.90;;;;;;5031298;28;20240;-68
2021/11/24 04:04:27;;;;;;;0.80;0.80;;;-2.70;99.90;;;;;;5031648;28;20699;-68
2021/11/24 04:06:52;;;;;;;1.42;1.33;;;-2.70;99.90;;;;;;5013990;28;20225;-68
2021/11/24 04:09:18;;;;;;;1.45;1.35;;;-2.70;99.90;;;;;;5015820;28;20688;-68
2021/11/24 04:11:44;;;;;;;0.80;0.80;;;-2.70;99.90;;;;;;5014045;28;20680;-68
2021/11/24 04:14:10;;;;;;;0.80;0.80;;;-2.80;99.90;;;;;;5014242;28;20201;-68
2021/11/24 04:16:36;;;;;;;0.80;0.80;;;-2.80;99.90;;;;;;5031776;28;20198;-68
2021/11/24 04:19:02;;;;;;;0.90;0.90;;;-2.80;99.90;;;;;;5013626;28;20198;-68
2021/11/24 04:21:30;;;;;;;0.80;0.80;;;-2.80;99.90;;;;;;5014250;28;20238;-68
2021/11/24 04:23:56;;;;;;;0.80;0.80;;;-2.80;99.90;;;;;;5031311;28;20607;-68
2021/11/24 04:26:22;;;;;;;0.90;0.90;;;-2.70;99.90;;;;;;5014002;28;20229;-68
2021/11/24 04:28:48;;;;;;;0.80;0.80;;;-2.70;99.90;;;;;;5033026;28;20665;-68
2021/11/24 04:31:14;;;;;;;0.80;0.80;;;-2.60;99.90;;;;;;5031494;28;20209;-69
2021/11/24 04:33:39;;;;;;;0.82;0.82;;;-2.30;99.90;;;;;;5013855;28;20256;-67
2021/11/24 04:36:07;;;;;;;0.90;0.90;;;-2.20;99.90;;;;;;5031541;28;20202;-69
2021/11/24 04:38:33;;;;;;;0.77;0.77;;;-2.10;99.90;;;;;;5031420;28;20741;-71
2021/11/24 04:40:59;;;;;;;0.80;0.80;;;-2.00;99.90;;;;;;5031520;28;20201;-68
2021/11/24 04:43:28;;;;;;;1.75;1.50;;;-1.90;99.90;;;;;;5031247;28;20228;-68
2021/11/24 04:45:54;;;;;;;0.80;0.80;;;-1.90;99.90;;;;;;5013683;28;20232;-69
2021/11/24 04:48:20;;;;;;;0.90;0.90;;;-1.90;99.90;;;;;;5032622;28;20208;-68
2021/11/24 04:50:45;;;;;;;0.70;0.70;;;-1.90;99.90;;;;;;5031304;28;20202;-68
2021/11/24 04:53:12;;;;;;;0.80;0.80;;;-2.00;99.90;;;;;;5031389;28;20210;-68
2021/11/24 04:55:38;;;;;;;0.77;0.77;;;-2.20;99.90;;;;;;5031104;28;20633;-68
2021/11/24 04:58:03;;;;;;;0.70;0.70;;;-2.30;99.90;;;;;;5031185;28;20194;-68
2021/11/24 05:00:30;;;;;;;0.70;0.70;;;-2.30;99.90;;;;;;5013306;28;20212;-70
2021/11/24 05:02:56;;;;;;;0.80;0.80;;;-2.40;99.90;;;;;;5030986;28;20645;-68
2021/11/24 05:05:27;;;;;;;0.90;0.90;;;-2.40;99.90;;;;;;5031126;28;20210;-68
2021/11/24 05:07:52;;;;;;;0.80;0.80;;;-2.40;99.90;;;;;;5031011;28;20230;-69
2021/11/24 05:10:18;;;;;;;0.80;0.80;;;-2.40;99.90;;;;;;5032510;28;20198;-70
2021/11/24 05:12:44;;;;;;;0.70;0.70;;;-2.40;99.90;;;;;;5013440;28;20264;-69
2021/11/24 05:15:16;;;;;;;0.63;0.63;;;-2.40;99.90;;;;;;5031588;28;20657;-68
2021/11/24 05:17:44;;;;;;;0.90;0.90;;;-2.30;99.90;;;;;;5013720;28;20198;-68
2021/11/24 05:20:10;;;;;;;0.80;0.80;;;-2.30;99.90;;;;;;5031203;28;20657;-68
2021/11/24 05:22:36;;;;;;;0.70;0.70;;;-2.30;99.90;;;;;;5014467;28;20675;-68
2021/11/24 05:25:03;;;;;;;0.80;0.80;;;-2.30;99.90;;;;;;5030988;28;20194;-68
2021/11/24 05:27:28;;;;;;;0.82;0.82;;;-2.30;99.90;;;;;;5030902;28;20208;-66
2021/11/24 05:29:54;;;;;;;0.80;0.80;;;-2.40;99.90;;;;;;5032718;28;20602;-68
2021/11/24 05:32:20;;;;;;;0.77;0.77;;;-2.40;99.90;;;;;;5018138;28;20222;-69
2021/11/24 05:34:46;;;;;;;0.82;0.82;;;-2.50;99.90;;;;;;5034980;28;20269;-69
2021/11/24 05:37:11;;;;;;;1.00;1.00;;;-2.50;99.90;;;;;;5034751;28;20229;-67
2021/11/24 05:39:37;;;;;;;0.80;0.80;;;-2.50;99.90;;;;;;5016821;28;20673;-68
2021/11/24 05:42:04;;;;;;;0.73;0.73;;;-2.50;99.90;;;;;;5035952;28;20580;-69
2021/11/24 05:44:33;;;;;;;0.90;0.90;;;-2.60;99.90;;;;;;5016732;28;20581;-68
2021/11/24 05:47:06;;;;;;;0.80;0.80;;;-2.60;99.90;;;;;;5034661;28;20288;-68
2021/11/24 05:49:34;;;;;;;0.60;0.60;;;-2.60;99.90;;;;;;5016534;28;20198;-67
2021/11/24 05:52:00;;;;;;;0.90;0.90;;;-2.70;99.90;;;;;;5034481;28;20217;-68
2021/11/24 05:54:26;;;;;;;1.33;1.25;;;-2.70;99.90;;;;;;5035000;28;20273;-68
2021/11/24 05:56:52;;;;;;;0.85;0.85;;;-2.70;99.90;;;;;;5035878;28;20340;-68
2021/11/24 05:59:18;;;;;;;0.70;0.70;;;-2.70;99.90;;;;;;5035770;28;20204;-68
2021/11/24 06:01:45;;;;;;;0.95;0.95;;;-2.60;99.90;;;;;;5034450;28;24790;-69
2021/11/24 06:04:10;;;;;;;0.75;0.75;;;-2.60;99.90;;;;;;5034640;28;20209;-70
2021/11/24 06:06:36;;;;;;;0.70;0.70;;;-2.60;99.90;;;;;;5035016;28;20206;-68
2021/11/24 06:09:06;;;;;;;0.77;0.77;;;-2.60;99.90;;;;;;5035178;28;20724;-68
2021/11/24 06:11:33;;;;;;;0.77;0.77;;;-2.60;99.90;;;;;;5017729;28;20308;-68
2021/11/24 06:13:58;;;;;;;0.80;0.80;;;-2.60;99.90;;;;;;5034257;28;20244;-68
2021/11/24 06:16:24;;;;;;;0.88;0.88;;;-2.40;99.90;;;;;;5035195;28;20564;-68
2021/11/24 06:18:50;;;;;;;0.80;0.80;;;-2.40;99.90;;;;;;5034152;28;20290;-68
2021/11/24 06:21:21;;;;;;;0.75;0.75;;;-2.30;99.90;;;;;;5033922;28;20214;-68
2021/11/24 06:23:48;;;;;;;0.70;0.70;;;-2.20;99.90;;;;;;5035333;28;20608;-68
2021/11/24 06:26:15;;;;;;;0.80;0.80;;;-2.20;99.90;;;;;;5015959;28;20264;-67
2021/11/24 06:28:43;;;;;;;0.80;0.80;;;-2.10;99.90;;;;;;5033823;28;20707;-68
2021/11/24 06:31:09;;;;;;;0.90;0.90;;;-2.00;99.90;;;;;;5033816;28;20214;-68
2021/11/24 06:33:36;;;;;;;0.80;0.80;;;-1.90;99.90;;;;;;5034987;28;20206;-68
2021/11/24 06:36:02;;;;;;;0.70;0.70;;;-1.90;99.90;;;;;;5017145;28;20210;-68
2021/11/24 06:38:28;;;;;;;0.80;0.80;;;-1.80;99.90;;;;;;5015739;28;20202;-68
2021/11/24 06:40:54;;;;;;;0.70;0.70;;;-1.80;99.90;;;;;;5033613;28;20213;-68
2021/11/24 06:43:19;;;;;;;0.80;0.80;;;-1.90;99.90;;;;;;5034022;28;20202;-68
2021/11/24 06:45:46;;;;;;;0.70;0.70;;;-2.00;99.90;;;;;;5014859;28;20202;-68
2021/11/24 06:48:11;;;;;;;0.80;0.80;;;-2.10;99.90;;;;;;5015619;28;20213;-67
2021/11/24 06:50:37;;;;;;;0.70;0.70;;;-2.20;99.90;;;;;;5015394;28;20237;-68
2021/11/24 06:53:03;;;;;;;0.80;0.80;;;-2.30;99.90;;;;;;5015495;28;20692;-68
2021/11/24 06:55:29;;;;;;;0.80;0.80;;;-2.30;99.90;;;;;;5015465;28;20201;-69
2021/11/24 06:57:55;;;;;;;0.80;0.80;;;-2.30;99.90;;;;;;5033819;28;20213;-68
2021/11/24 07:00:21;;;;;;;0.70;0.70;;;-2.30;99.90;;;;;;5034408;28;20406;-69
2021/11/24 07:02:46;;;;;;;0.80;0.80;;;-2.40;99.90;;;;;;5033074;28;20275;-68
2021/11/24 07:05:13;;;;;;;0.85;0.85;;;-2.40;99.90;;;;;;5033238;28;20267;-68
2021/11/24 07:07:39;;;;;;;1.00;1.00;;;-2.40;99.90;;;;;;5014977;28;20371;-67
2021/11/24 07:10:06;;;;;;;0.90;0.90;;;-2.50;99.90;;;;;;5033126;28;20304;-68
2021/11/24 07:12:32;;;;;;;1.00;1.00;;;-2.50;99.90;;;;;;5014829;28;20268;-68
2021/11/24 07:14:58;;;;;;;1.10;1.10;;;-2.50;99.90;;;;;;5032847;28;20202;-68
2021/11/24 07:17:25;;;;;;;1.25;1.15;;;-2.60;99.90;;;;;;5014886;28;20202;-68
2021/11/24 07:19:51;;;;;;;0.80;0.80;;;-2.60;99.90;;;;;;5015009;28;20645;-68
2021/11/24 07:22:17;;;;;;;1.88;1.50;;;-2.60;99.90;;;;;;5032804;28;20210;-68
2021/11/24 07:24:43;;;;;;;0.95;0.95;;;-2.40;99.90;;;;;;5032532;28;20315;-68
2021/11/24 07:27:09;;;;;;;0.88;0.88;;;-2.40;99.90;;;;;;5032632;28;20737;-68
2021/11/24 07:29:34;;;;;;;1.30;1.20;;;-2.40;99.90;;;;;;5033865;28;20329;-68
2021/11/24 07:32:00;;;;;;;0.80;0.80;;;-2.40;99.90;;;;;;5033754;28;20217;-68
2021/11/24 07:34:26;;;;;;;0.88;0.88;;;-2.40;99.90;;;;;;5014588;28;20202;-68
2021/11/24 07:36:53;;;;;;;1.08;1.05;;;-2.50;99.90;;;;;;5015965;28;20194;-68
2021/11/24 07:39:19;;;;;;;3.95;3.50;;;-2.50;99.90;;;;;;5033848;28;20201;-68
2021/11/24 07:41:44;;;;;;;2.25;2.05;;;-2.50;99.90;;;;;;5031544;28;20206;-68
2021/11/24 07:44:10;;;;;;;4.68;3.20;;;-2.40;99.90;;;;;;5014929;28;20201;-68
2021/11/24 07:46:36;;;;;;;2.33;2.13;;;-2.40;99.90;;;;;;5031955;28;20581;-68
2021/11/24 07:49:02;;;;;;;6.32;1.88;;;-2.40;99.90;;;;;;5032584;28;20208;-68
2021/11/24 07:51:28;;;;;;;1.00;1.00;;;-2.30;99.90;;;;;;5032383;28;20273;-68
2021/11/24 07:53:54;;;;;;;4.32;2.38;;;-2.30;99.90;;;;;;5031253;28;20207;-68
2021/11/24 07:56:21;;;;;;;0.82;0.82;;;-2.20;99.90;;;;;;5033508;28;20206;-67
2021/11/24 07:58:47;;;;;;;0.85;0.85;;;-2.10;99.90;;;;;;5014193;28;20253;-69
2021/11/24 08:01:13;;;;;;;0.70;0.70;;;-2.10;99.90;;;;;;5031816;28;20211;-68
2021/11/24 08:03:39;;;;;;;0.93;0.93;;;-2.10;99.90;;;;;;5031868;28;20297;-67
2021/11/24 08:06:05;;;;;;;0.80;0.80;;;-2.10;99.90;;;;;;5033161;28;20716;-68
2021/11/24 08:08:32;;;;;;;0.80;0.80;;;-2.10;99.90;;;;;;5032786;28;20302;-67
2021/11/24 08:10:58;;;;;;;1.15;1.05;;;-2.10;99.90;;;;;;5032989;28;20260;-67
2021/11/24 08:13:24;;;;;;;0.80;0.80;;;-2.10;99.90;;;;;;5032979;28;20590;-67
2021/11/24 08:15:50;;;;;;;0.90;0.90;;;-2.10;99.90;;;;;;5031876;28;20264;-68
2021/11/24 08:18:17;;;;;;;0.60;0.60;;;-2.10;99.90;;;;;;5014077;28;20202;-68
2021/11/24 08:20:42;;;;;;;0.85;0.85;;;-2.10;99.90;;;;;;5014880;28;20202;-68
2021/11/24 08:23:08;;;;;;;0.90;0.90;;;-2.10;99.90;;;;;;5031753;28;20285;-68
2021/11/24 08:25:35;;;;;;;0.70;0.70;;;-2.00;99.90;;;;;;5013447;28;20681;-68
2021/11/24 08:28:01;;;;;;;0.80;0.80;;;-2.00;99.90;;;;;;5031518;28;20221;-68
2021/11/24 08:30:27;;;;;;;0.80;0.80;;;-1.90;99.90;;;;;;5031442;28;20213;-68
2021/11/24 08:32:53;;;;;;;0.80;0.80;;;-1.90;99.90;;;;;;5031497;28;20197;-68
2021/11/24 08:35:21;;;;;;;0.70;0.70;;;-1.90;99.90;;;;;;5032603;28;20604;-70
2021/11/24 08:37:47;;;;;;;0.80;0.80;;;-1.90;99.90;;;;;;5031341;28;20282;-67
2021/11/24 08:40:14;;;;;;;0.70;0.70;;;-1.80;99.90;;;;;;5031374;28;20615;-68
2021/11/24 08:42:40;;;;;;;0.80;0.80;;;-1.80;99.90;;;;;;5031200;28;20201;-67
2021/11/24 08:45:08;;;;;;;0.80;0.80;;;-1.80;99.90;;;;;;5031218;28;20293;-72
2021/11/24 08:47:35;;;;;;;0.80;0.80;;;-1.80;99.90;;;;;;5013392;28;20209;-68
2021/11/24 08:50:01;;;;;;;0.68;0.68;;;-1.80;99.90;;;;;;5031240;28;20205;-68
2021/11/24 08:52:26;;;;;;;0.90;0.90;;;-1.80;99.90;;;;;;5013303;28;20210;-68
2021/11/24 08:54:52;;;;;;;0.80;0.80;;;-1.70;99.90;;;;;;5031129;28;20197;-69
2021/11/24 08:57:18;;;;;;;0.90;0.90;;;-1.70;99.90;;;;;;5013455;28;20202;-69
2021/11/24 08:59:44;;;;;;;0.70;0.70;;;-1.70;99.90;;;;;;5032580;28;20205;-68
2021/11/24 09:02:10;;;;;;;0.93;0.93;;;-1.70;99.90;;;;;;5030967;28;20212;-68
2021/11/24 09:04:36;;;;;;;0.80;0.80;;;-1.50;99.90;;;;;;5031926;28;20669;-68
2021/11/24 09:07:02;;;;;;;0.80;0.80;;;-1.40;99.90;;;;;;5031351;28;20668;-68
2021/11/24 09:09:28;;;;;;;0.82;0.82;;;-1.40;99.90;;;;;;5030884;28;20293;-68
2021/11/24 09:11:54;;;;;;;0.80;0.80;;;-1.30;99.90;;;;;;5013576;28;20333;-68
2021/11/24 09:14:20;;;;;;;0.73;0.73;;;-1.20;99.90;;;;;;5012450;28;20267;-69
2021/11/24 09:16:46;;;;;;;0.70;0.70;;;-1.10;99.90;;;;;;5030087;28;20668;-68
2021/11/24 09:19:12;;;;;;;0.80;0.80;;;-1.00;99.90;;;;;;5032380;28;20214;-68
2021/11/24 09:21:38;;;;;;;0.77;0.77;;;-1.00;99.90;;;;;;5032111;28;20586;-68
2021/11/24 09:24:12;;;;;;;0.80;0.80;;;-1.00;99.90;;;;;;5032289;28;20224;-69
2021/11/24 09:26:54;;;;;;;0.77;0.77;;;-0.90;99.90;;;;;;5012019;28;20260;-70
2021/11/24 09:29:21;;;;;;;0.63;0.63;;;-0.80;99.90;;;;;;5030127;28;20239;-70
2021/11/24 09:31:46;;;;;;;0.68;0.68;;;-0.80;99.90;;;;;;5029922;28;20225;-68
2021/11/24 09:34:12;;;;;;;0.80;0.80;;;-0.80;99.90;;;;;;5031028;28;20228;-68
2021/11/24 09:36:40;;;;;;;1.42;1.33;;;-0.80;99.90;;;;;;5022086;28;20685;-68
2021/11/24 09:39:07;;;;;;;1.42;1.35;;;-0.80;99.90;;;;;;5029261;28;20202;-68
2021/11/24 09:41:37;;;;;;;0.93;0.93;;;-0.80;99.90;;;;;;5031908;28;20260;-67
2021/11/24 09:44:04;;;;;;;0.93;0.90;;;-0.90;99.90;;;;;;5013072;28;20242;-68
2021/11/24 09:46:36;;;;;;;1.60;1.50;;;-0.90;99.90;;;;;;5014197;28;20214;-68
2021/11/24 09:49:05;;;;;;;1.33;1.23;;;-0.80;99.90;;;;;;5030891;28;20224;-68
2021/11/24 09:51:33;;;;;;;8.98;3.22;;;-0.80;99.90;;;;;;5013832;28;20212;-68
2021/11/24 09:54:01;;;;;;;1.75;1.30;;;-0.70;99.90;;;;;;5032169;28;20595;-66
2021/11/24 09:56:27;;;;;;;0.95;0.85;;;-0.60;99.90;;;;;;5031691;28;20534;-68
2021/11/24 09:58:53;;;;;;;1.33;1.23;;;-0.60;99.90;;;;;;5012781;28;20202;-69
2021/11/24 10:01:19;;;;;;;0.70;0.70;;;-0.50;99.90;;;;;;5013643;28;20216;-70
2021/11/24 10:03:45;;;;;;;1.77;1.67;;;-0.40;99.90;;;;;;5031878;28;20202;-66
2021/11/24 10:06:11;;;;;;;1.00;1.00;;;-0.30;99.90;;;;;;5030314;28;20697;-68
2021/11/24 10:08:36;;;;;;;0.80;0.80;;;-0.20;99.90;;;;;;5030200;28;20256;-68
2021/11/24 10:11:02;;;;;;;0.95;0.95;;;-0.20;99.90;;;;;;5030486;28;20206;-68
2021/11/24 10:13:28;;;;;;;0.80;0.80;;;-0.10;99.90;;;;;;5012566;28;20209;-68
2021/11/24 10:15:57;;;;;;;3.15;1.27;;;-0.10;99.90;;;;;;5030559;28;20282;-68
2021/11/24 10:18:28;;;;;;;0.73;0.73;;;0.00;99.90;;;;;;5034240;28;20254;-68
2021/11/24 10:21:07;;;;;;;1.33;1.23;;;0.00;99.90;;;;;;5033815;28;20677;-68
2021/11/24 10:23:47;;;;;;;1.27;1.17;;;0.10;99.90;;;;;;5033886;28;20591;-68
2021/11/24 10:26:21;;;;;;;1.08;0.98;;;0.20;99.90;;;;;;5016208;28;20236;-68
2021/11/24 10:28:50;;;;;;;0.85;0.85;;;0.20;99.90;;;;;;5016062;28;20202;-69
2021/11/24 10:31:26;;;;;;;1.38;1.25;;;0.20;99.90;;;;;;5015886;28;20202;-70
2021/11/24 10:33:52;;;;;;;1.42;1.33;;;0.30;99.90;;;;;;5032678;28;20234;-70
2021/11/24 10:36:18;;;;;;;2.95;2.25;;;0.30;99.90;;;;;;5033785;28;20198;-69
2021/11/24 10:38:49;;;;;;;3.78;2.72;;;0.40;99.90;;;;;;5034789;28;20195;-68
2021/11/24 10:41:39;;;;;;;1.10;1.10;;;0.40;99.90;;;;;;5034861;28;20608;-68
2021/11/24 10:44:06;;;;;;;0.60;0.60;;;0.50;99.90;;;;;;5033616;28;20199;-69
2021/11/24 10:46:35;;;;;;;0.70;0.70;;;0.60;99.90;;;;;;5034672;28;20293;-68
2021/11/24 10:49:05;;;;;;;4.43;2.65;;;0.60;99.90;;;;;;5015655;28;20782;-68
2021/11/24 10:51:37;;;;;;;1.05;1.05;;;0.60;99.90;;;;;;5033363;28;20202;-68
2021/11/24 10:54:08;;;;;;;0.70;0.70;;;0.70;99.90;;;;;;5034677;28;20629;-68
2021/11/24 10:56:35;;;;;;;0.73;0.73;;;0.70;99.90;;;;;;5015402;28;20205;-68
2021/11/24 10:59:17;;;;;;;0.65;0.65;;;0.80;99.90;;;;;;5033468;28;20206;-68
2021/11/24 11:01:44;;;;;;;1.17;1.15;;;0.80;99.90;;;;;;5034359;28;20551;-68
2021/11/24 11:04:10;;;;;;;0.80;0.80;;;0.90;99.90;;;;;;5016581;28;20209;-68
2021/11/24 11:06:38;;;;;;;0.80;0.80;;;0.90;99.90;;;;;;5014867;28;20205;-68
2021/11/24 11:09:04;;;;;;;4.25;1.90;;;1.00;99.90;;;;;;5032933;28;20226;-68
2021/11/24 11:11:32;;;;;;;0.60;0.60;;;1.00;99.90;;;;;;5032963;28;20723;-68
2021/11/24 11:14:22;;;;;;;4.07;2.00;;;1.00;99.90;;;;;;5033192;28;20198;-68
2021/11/24 11:16:50;;;;;;;0.68;0.68;;;1.10;99.90;;;;;;5018148;28;20198;-68
2021/11/24 11:19:38;;;;;;;1.65;1.20;;;1.10;99.90;;;;;;5016402;28;20206;-68
2021/11/24 11:22:06;;;;;;;0.70;0.70;;;1.20;99.90;;;;;;5014831;28;20213;-68
2021/11/24 11:24:32;;;;;;;0.60;0.60;;;1.20;99.90;;;;;;5014159;28;20211;-68
2021/11/24 11:26:58;;;;;;;0.80;0.80;;;1.20;99.90;;;;;;5032859;28;20681;-68
2021/11/24 11:29:24;;;;;;;0.70;0.70;;;1.20;99.90;;;;;;5015979;28;20281;-68
2021/11/24 11:31:50;;;;;;;0.75;0.75;;;1.20;99.90;;;;;;5015076;28;20244;-68
2021/11/24 11:34:16;;;;;;;0.70;0.70;;;1.20;99.90;;;;;;5032752;28;20194;-68
2021/11/24 11:36:43;;;;;;;0.82;0.82;;;1.20;99.90;;;;;;5032866;28;20285;-68
2021/11/24 11:39:09;;;;;;;0.77;0.77;;;1.20;99.90;;;;;;5032384;28;20222;-68
2021/11/24 11:41:38;;;;;;;0.60;0.60;;;1.20;99.90;;;;;;5030576;28;20673;-68
2021/11/24 11:44:05;;;;;;;0.70;0.70;;;1.20;99.90;;;;;;5033832;28;20297;-68
2021/11/24 11:46:51;;;;;;;0.93;0.88;;;1.20;99.90;;;;;;5032354;28;20206;-68
2021/11/24 11:49:20;;;;;;;0.60;0.60;;;1.30;99.90;;;;;;5014575;28;20234;-70
2021/11/24 11:51:48;;;;;;;0.70;0.70;;;1.20;99.90;;;;;;5015814;28;20672;-68
2021/11/24 11:54:26;;;;;;;0.60;0.60;;;1.30;99.90;;;;;;5032317;28;20285;-68
2021/11/24 11:56:52;;;;;;;1.45;1.35;;;1.30;99.90;;;;;;5032121;28;20292;-67
2021/11/24 11:59:21;;;;;;;0.75;0.75;;;1.30;99.90;;;;;;5032279;28;20597;-69
2021/11/24 12:01:46;;;;;;;0.70;0.70;;;1.30;99.90;;;;;;5014115;28;20746;-68
2021/11/24 12:04:14;;;;;;;0.73;0.73;;;1.20;99.90;;;;;;5032186;28;20205;-68
2021/11/24 12:06:43;;;;;;;5.68;1.77;;;1.20;99.90;;;;;;5013864;28;20283;-68
2021/11/24 12:09:35;;;;;;;0.60;0.60;;;1.20;99.90;;;;;;5031697;28;20226;-68
2021/11/24 12:12:12;;;;;;;0.70;0.70;;;1.20;99.90;;;;;;5013950;28;20225;-68
2021/11/24 12:14:56;;;;;;;1.13;1.10;;;1.10;99.90;;;;;;5033000;28;20681;-68
2021/11/24 12:17:37;;;;;;;0.73;0.73;;;1.10;99.90;;;;;;5015036;28;20212;-69
2021/11/24 12:20:12;;;;;;;1.67;1.52;;;1.00;99.90;;;;;;5033127;28;20209;-68
2021/11/24 12:22:54;;;;;;;0.60;0.60;;;1.00;99.90;;;;;;5031509;28;20197;-68
2021/11/24 12:25:20;;;;;;;0.68;0.68;;;1.00;99.90;;;;;;5031451;28;20242;-69
2021/11/24 12:27:58;;;;;;;0.95;0.95;;;1.00;99.90;;;;;;5013842;28;20210;-68
2021/11/24 12:30:36;;;;;;;0.70;0.70;;;1.00;99.90;;;;;;5012826;28;20669;-69
2021/11/24 12:33:08;;;;;;;0.70;0.70;;;1.00;99.90;;;;;;5031515;28;20645;-68
2021/11/24 12:35:37;;;;;;;1.75;1.40;;;1.00;99.90;;;;;;5031425;28;20563;-68
2021/11/24 12:38:04;;;;;;;1.63;1.52;;;1.00;99.90;;;;;;5031987;28;20688;-68
2021/11/24 12:40:33;;;;;;;0.70;0.70;;;1.00;99.90;;;;;;5030716;28;20776;-69
2021/11/24 12:43:00;;;;;;;0.70;0.70;;;1.10;99.90;;;;;;5013770;28;20214;-68
2021/11/24 12:45:27;;;;;;;3.00;1.70;;;1.00;99.90;;;;;;5013645;28;20198;-69
2021/11/24 12:48:04;;;;;;;0.80;0.80;;;1.10;99.90;;;;;;5032701;28;20252;-69